sensor_id;sensor_type;location;lat;lon;timestamp;P1;durP1;ratioP1;P2;durP2;ratioP2
44750;SDS011;30477;48.224;11.470;2022-09-03T00:00:36;3.42;;;2.80;;
44750;SDS011;30477;48.224;11.470;2022-09-03T00:06:01;5.15;;;2.45;;
44750;SDS011;30477;48.224;11.470;2022-09-03T00:08:43;3.53;;;2.90;;
44750;SDS011;30477;48.224;11.470;2022-09-03T00:11:28;7.75;;;2.90;;
44750;SDS011;30477;48.224;11.470;2022-09-03T00:14:20;6.15;;;2.80;;
44750;SDS011;30477;48.224;11.470;2022-09-03T00:19:25;5.45;;;3.03;;
44750;SDS011;30477;48.224;11.470;2022-09-03T00:22:06;5.70;;;2.90;;
44750;SDS011;30477;48.224;11.470;2022-09-03T00:24:37;3.30;;;2.75;;
44750;SDS011;30477;48.224;11.470;2022-09-03T00:27:06;3.72;;;2.70;;
44750;SDS011;30477;48.224;11.470;2022-09-03T00:32:51;4.43;;;2.80;;
44750;SDS011;30477;48.224;11.470;2022-09-03T00:38:11;4.18;;;3.03;;
44750;SDS011;30477;48.224;11.470;2022-09-03T00:43:28;5.07;;;3.00;;
44750;SDS011;30477;48.224;11.470;2022-09-03T00:46:04;3.25;;;2.95;;
44750;SDS011;30477;48.224;11.470;2022-09-03T00:48:44;4.82;;;3.03;;
44750;SDS011;30477;48.224;11.470;2022-09-03T00:51:34;4.45;;;3.05;;
44750;SDS011;30477;48.224;11.470;2022-09-03T00:59:43;4.30;;;3.10;;
44750;SDS011;30477;48.224;11.470;2022-09-03T01:24:51;5.53;;;3.08;;
44750;SDS011;30477;48.224;11.470;2022-09-03T01:30:26;4.73;;;2.70;;
44750;SDS011;30477;48.224;11.470;2022-09-03T01:35:49;3.97;;;3.13;;
44750;SDS011;30477;48.224;11.470;2022-09-03T01:42:00;4.18;;;3.10;;
44750;SDS011;30477;48.224;11.470;2022-09-03T01:47:48;3.42;;;3.10;;
44750;SDS011;30477;48.224;11.470;2022-09-03T01:52:55;3.90;;;3.10;;
44750;SDS011;30477;48.224;11.470;2022-09-03T01:58:21;3.15;;;2.85;;
44750;SDS011;30477;48.224;11.470;2022-09-03T02:00:51;3.38;;;2.95;;
44750;SDS011;30477;48.224;11.470;2022-09-03T02:03:23;4.15;;;3.08;;
44750;SDS011;30477;48.224;11.470;2022-09-03T02:05:57;3.78;;;2.90;;
44750;SDS011;30477;48.224;11.470;2022-09-03T02:08:22;3.33;;;3.03;;
44750;SDS011;30477;48.224;11.470;2022-09-03T02:10:53;3.47;;;3.10;;
44750;SDS011;30477;48.224;11.470;2022-09-03T02:13:27;4.10;;;3.28;;
44750;SDS011;30477;48.224;11.470;2022-09-03T02:16:03;5.37;;;3.47;;
44750;SDS011;30477;48.224;11.470;2022-09-03T02:18:48;4.93;;;3.65;;
44750;SDS011;30477;48.224;11.470;2022-09-03T02:21:17;6.35;;;3.45;;
44750;SDS011;30477;48.224;11.470;2022-09-03T02:23:45;3.17;;;2.78;;
44750;SDS011;30477;48.224;11.470;2022-09-03T02:26:12;4.00;;;3.40;;
44750;SDS011;30477;48.224;11.470;2022-09-03T02:28:40;4.72;;;3.28;;
44750;SDS011;30477;48.224;11.470;2022-09-03T02:31:06;6.43;;;3.42;;
44750;SDS011;30477;48.224;11.470;2022-09-03T02:33:33;4.83;;;3.33;;
44750;SDS011;30477;48.224;11.470;2022-09-03T02:36:02;3.95;;;3.58;;
44750;SDS011;30477;48.224;11.470;2022-09-03T02:38:29;4.65;;;3.40;;
44750;SDS011;30477;48.224;11.470;2022-09-03T02:40:55;6.90;;;3.10;;
44750;SDS011;30477;48.224;11.470;2022-09-03T02:46:03;4.88;;;3.55;;
44750;SDS011;30477;48.224;11.470;2022-09-03T02:48:32;3.65;;;3.35;;
44750;SDS011;30477;48.224;11.470;2022-09-03T02:50:57;7.13;;;3.57;;
44750;SDS011;30477;48.224;11.470;2022-09-03T02:53:23;4.10;;;3.70;;
44750;SDS011;30477;48.224;11.470;2022-09-03T02:55:49;4.85;;;3.60;;
44750;SDS011;30477;48.224;11.470;2022-09-03T02:58:14;4.93;;;3.33;;
44750;SDS011;30477;48.224;11.470;2022-09-03T03:00:39;5.37;;;3.60;;
44750;SDS011;30477;48.224;11.470;2022-09-03T03:03:05;7.83;;;3.70;;
44750;SDS011;30477;48.224;11.470;2022-09-03T03:05:53;7.15;;;3.75;;
44750;SDS011;30477;48.224;11.470;2022-09-03T03:08:23;6.63;;;3.85;;
44750;SDS011;30477;48.224;11.470;2022-09-03T03:10:56;5.07;;;3.55;;
44750;SDS011;30477;48.224;11.470;2022-09-03T03:13:23;5.32;;;4.10;;
44750;SDS011;30477;48.224;11.470;2022-09-03T03:15:49;5.40;;;3.70;;
44750;SDS011;30477;48.224;11.470;2022-09-03T03:18:14;5.13;;;3.87;;
44750;SDS011;30477;48.224;11.470;2022-09-03T03:20:41;5.72;;;3.92;;
44750;SDS011;30477;48.224;11.470;2022-09-03T03:25:34;5.45;;;3.60;;
44750;SDS011;30477;48.224;11.470;2022-09-03T03:28:01;4.65;;;4.15;;
44750;SDS011;30477;48.224;11.470;2022-09-03T03:30:28;9.55;;;3.88;;
44750;SDS011;30477;48.224;11.470;2022-09-03T03:32:54;4.28;;;3.88;;
44750;SDS011;30477;48.224;11.470;2022-09-03T03:35:19;4.87;;;4.07;;
44750;SDS011;30477;48.224;11.470;2022-09-03T03:37:45;4.17;;;3.80;;
44750;SDS011;30477;48.224;11.470;2022-09-03T03:40:11;6.97;;;4.10;;
44750;SDS011;30477;48.224;11.470;2022-09-03T03:42:37;6.22;;;4.10;;
44750;SDS011;30477;48.224;11.470;2022-09-03T03:45:03;4.17;;;3.77;;
44750;SDS011;30477;48.224;11.470;2022-09-03T03:47:29;4.75;;;3.83;;
44750;SDS011;30477;48.224;11.470;2022-09-03T03:49:56;5.75;;;3.95;;
44750;SDS011;30477;48.224;11.470;2022-09-03T03:52:22;6.15;;;4.00;;
44750;SDS011;30477;48.224;11.470;2022-09-03T03:54:48;6.30;;;4.47;;
44750;SDS011;30477;48.224;11.470;2022-09-03T03:57:14;4.37;;;3.97;;
44750;SDS011;30477;48.224;11.470;2022-09-03T03:59:39;5.07;;;4.38;;
44750;SDS011;30477;48.224;11.470;2022-09-03T04:02:05;4.67;;;4.07;;
44750;SDS011;30477;48.224;11.470;2022-09-03T04:04:30;5.57;;;4.40;;
44750;SDS011;30477;48.224;11.470;2022-09-03T04:06:56;4.70;;;4.30;;
44750;SDS011;30477;48.224;11.470;2022-09-03T04:09:21;5.80;;;4.53;;
44750;SDS011;30477;48.224;11.470;2022-09-03T04:11:46;5.53;;;4.40;;
44750;SDS011;30477;48.224;11.470;2022-09-03T04:14:12;6.17;;;4.53;;
44750;SDS011;30477;48.224;11.470;2022-09-03T04:16:37;5.30;;;4.03;;
44750;SDS011;30477;48.224;11.470;2022-09-03T04:19:03;7.10;;;4.53;;
44750;SDS011;30477;48.224;11.470;2022-09-03T04:21:29;5.13;;;4.40;;
44750;SDS011;30477;48.224;11.470;2022-09-03T04:23:55;6.13;;;4.80;;
44750;SDS011;30477;48.224;11.470;2022-09-03T04:26:22;4.82;;;4.43;;
44750;SDS011;30477;48.224;11.470;2022-09-03T04:28:55;6.40;;;4.32;;
44750;SDS011;30477;48.224;11.470;2022-09-03T04:31:21;5.28;;;4.50;;
44750;SDS011;30477;48.224;11.470;2022-09-03T04:33:46;4.80;;;4.30;;
44750;SDS011;30477;48.224;11.470;2022-09-03T04:36:15;6.30;;;4.50;;
44750;SDS011;30477;48.224;11.470;2022-09-03T04:38:43;5.38;;;4.60;;
44750;SDS011;30477;48.224;11.470;2022-09-03T04:41:11;5.65;;;4.35;;
44750;SDS011;30477;48.224;11.470;2022-09-03T04:43:38;4.65;;;4.25;;
44750;SDS011;30477;48.224;11.470;2022-09-03T04:46:04;6.72;;;4.65;;
44750;SDS011;30477;48.224;11.470;2022-09-03T04:48:32;4.60;;;4.20;;
44750;SDS011;30477;48.224;11.470;2022-09-03T04:51:02;4.72;;;4.25;;
44750;SDS011;30477;48.224;11.470;2022-09-03T04:53:31;5.45;;;4.28;;
44750;SDS011;30477;48.224;11.470;2022-09-03T04:55:57;5.10;;;4.20;;
44750;SDS011;30477;48.224;11.470;2022-09-03T04:58:22;5.33;;;4.63;;
44750;SDS011;30477;48.224;11.470;2022-09-03T05:00:47;5.00;;;4.60;;
44750;SDS011;30477;48.224;11.470;2022-09-03T05:03:13;5.00;;;4.47;;
44750;SDS011;30477;48.224;11.470;2022-09-03T05:05:38;5.43;;;4.53;;
44750;SDS011;30477;48.224;11.470;2022-09-03T05:08:03;4.57;;;4.13;;
44750;SDS011;30477;48.224;11.470;2022-09-03T05:10:29;4.55;;;4.15;;
44750;SDS011;30477;48.224;11.470;2022-09-03T05:13:02;7.17;;;4.70;;
44750;SDS011;30477;48.224;11.470;2022-09-03T05:15:29;5.68;;;4.40;;
44750;SDS011;30477;48.224;11.470;2022-09-03T05:20:21;6.35;;;4.07;;
44750;SDS011;30477;48.224;11.470;2022-09-03T05:22:47;5.83;;;4.33;;
44750;SDS011;30477;48.224;11.470;2022-09-03T05:25:12;4.57;;;4.00;;
44750;SDS011;30477;48.224;11.470;2022-09-03T05:27:37;4.03;;;3.63;;
44750;SDS011;30477;48.224;11.470;2022-09-03T05:30:03;5.90;;;4.00;;
44750;SDS011;30477;48.224;11.470;2022-09-03T05:32:29;4.40;;;4.00;;
44750;SDS011;30477;48.224;11.470;2022-09-03T05:37:20;5.80;;;4.18;;
44750;SDS011;30477;48.224;11.470;2022-09-03T05:39:47;4.57;;;4.07;;
44750;SDS011;30477;48.224;11.470;2022-09-03T05:42:12;4.13;;;3.83;;
44750;SDS011;30477;48.224;11.470;2022-09-03T05:44:39;8.57;;;4.30;;
44750;SDS011;30477;48.224;11.470;2022-09-03T05:47:04;4.40;;;4.00;;
44750;SDS011;30477;48.224;11.470;2022-09-03T05:49:30;4.63;;;4.23;;
44750;SDS011;30477;48.224;11.470;2022-09-03T05:51:55;5.88;;;4.25;;
44750;SDS011;30477;48.224;11.470;2022-09-03T05:54:21;4.70;;;4.13;;
44750;SDS011;30477;48.224;11.470;2022-09-03T05:56:46;6.70;;;4.27;;
44750;SDS011;30477;48.224;11.470;2022-09-03T05:59:12;5.47;;;4.43;;
44750;SDS011;30477;48.224;11.470;2022-09-03T06:01:38;6.27;;;4.27;;
44750;SDS011;30477;48.224;11.470;2022-09-03T06:04:09;6.30;;;4.28;;
44750;SDS011;30477;48.224;11.470;2022-09-03T06:06:37;6.30;;;4.68;;
44750;SDS011;30477;48.224;11.470;2022-09-03T06:09:08;6.43;;;4.78;;
44750;SDS011;30477;48.224;11.470;2022-09-03T06:11:35;5.18;;;4.60;;
44750;SDS011;30477;48.224;11.470;2022-09-03T06:14:04;5.30;;;4.68;;
44750;SDS011;30477;48.224;11.470;2022-09-03T06:16:32;6.78;;;4.60;;
44750;SDS011;30477;48.224;11.470;2022-09-03T06:18:59;5.53;;;4.72;;
44750;SDS011;30477;48.224;11.470;2022-09-03T06:21:25;5.50;;;4.65;;
44750;SDS011;30477;48.224;11.470;2022-09-03T06:23:51;5.55;;;4.72;;
44750;SDS011;30477;48.224;11.470;2022-09-03T06:26:19;5.43;;;4.20;;
44750;SDS011;30477;48.224;11.470;2022-09-03T06:28:45;4.25;;;3.85;;
44750;SDS011;30477;48.224;11.470;2022-09-03T06:31:13;5.85;;;4.00;;
44750;SDS011;30477;48.224;11.470;2022-09-03T06:33:40;5.68;;;4.20;;
44750;SDS011;30477;48.224;11.470;2022-09-03T06:36:07;4.60;;;4.20;;
44750;SDS011;30477;48.224;11.470;2022-09-03T06:38:37;5.65;;;4.43;;
44750;SDS011;30477;48.224;11.470;2022-09-03T06:41:04;4.70;;;4.13;;
44750;SDS011;30477;48.224;11.470;2022-09-03T06:43:34;5.35;;;4.50;;
44750;SDS011;30477;48.224;11.470;2022-09-03T06:46:07;5.95;;;4.07;;
44750;SDS011;30477;48.224;11.470;2022-09-03T06:48:34;6.07;;;4.50;;
44750;SDS011;30477;48.224;11.470;2022-09-03T06:51:01;5.40;;;4.07;;
44750;SDS011;30477;48.224;11.470;2022-09-03T06:53:41;6.75;;;4.55;;
44750;SDS011;30477;48.224;11.470;2022-09-03T06:56:09;5.90;;;4.60;;
44750;SDS011;30477;48.224;11.470;2022-09-03T06:58:40;8.85;;;4.68;;
44750;SDS011;30477;48.224;11.470;2022-09-03T07:03:38;4.97;;;4.47;;
44750;SDS011;30477;48.224;11.470;2022-09-03T07:06:05;7.93;;;4.75;;
44750;SDS011;30477;48.224;11.470;2022-09-03T07:08:32;5.30;;;4.80;;
44750;SDS011;30477;48.224;11.470;2022-09-03T07:13:25;8.10;;;4.65;;
44750;SDS011;30477;48.224;11.470;2022-09-03T07:15:57;6.97;;;4.83;;
44750;SDS011;30477;48.224;11.470;2022-09-03T07:18:27;6.57;;;5.07;;
44750;SDS011;30477;48.224;11.470;2022-09-03T07:20:56;7.57;;;4.93;;
44750;SDS011;30477;48.224;11.470;2022-09-03T07:23:22;6.30;;;5.10;;
44750;SDS011;30477;48.224;11.470;2022-09-03T07:25:57;5.60;;;4.83;;
44750;SDS011;30477;48.224;11.470;2022-09-03T07:28:24;9.45;;;5.20;;
44750;SDS011;30477;48.224;11.470;2022-09-03T07:33:16;5.10;;;4.53;;
44750;SDS011;30477;48.224;11.470;2022-09-03T07:38:08;5.82;;;5.20;;
44750;SDS011;30477;48.224;11.470;2022-09-03T07:40:34;8.13;;;4.67;;
44750;SDS011;30477;48.224;11.470;2022-09-03T07:42:59;7.95;;;5.22;;
44750;SDS011;30477;48.224;11.470;2022-09-03T07:45:27;9.15;;;4.82;;
44750;SDS011;30477;48.224;11.470;2022-09-03T07:47:52;11.93;;;8.97;;
44750;SDS011;30477;48.224;11.470;2022-09-03T07:50:18;5.23;;;4.73;;
44750;SDS011;30477;48.224;11.470;2022-09-03T07:52:44;7.05;;;4.95;;
44750;SDS011;30477;48.224;11.470;2022-09-03T07:55:09;8.97;;;4.80;;
44750;SDS011;30477;48.224;11.470;2022-09-03T07:57:35;4.82;;;4.43;;
44750;SDS011;30477;48.224;11.470;2022-09-03T08:00:01;7.57;;;4.53;;
44750;SDS011;30477;48.224;11.470;2022-09-03T08:02:26;5.80;;;4.93;;
44750;SDS011;30477;48.224;11.470;2022-09-03T08:04:52;5.50;;;4.83;;
44750;SDS011;30477;48.224;11.470;2022-09-03T08:07:17;5.93;;;4.67;;
44750;SDS011;30477;48.224;11.470;2022-09-03T08:09:42;7.80;;;4.80;;
44750;SDS011;30477;48.224;11.470;2022-09-03T08:12:07;5.53;;;4.97;;
44750;SDS011;30477;48.224;11.470;2022-09-03T08:14:33;5.43;;;4.27;;
44750;SDS011;30477;48.224;11.470;2022-09-03T08:16:58;5.70;;;4.30;;
44750;SDS011;30477;48.224;11.470;2022-09-03T08:19:24;5.13;;;4.63;;
44750;SDS011;30477;48.224;11.470;2022-09-03T08:21:49;5.80;;;5.07;;
44750;SDS011;30477;48.224;11.470;2022-09-03T08:24:16;6.00;;;5.40;;
44750;SDS011;30477;48.224;11.470;2022-09-03T08:26:43;6.05;;;4.68;;
44750;SDS011;30477;48.224;11.470;2022-09-03T08:29:08;6.47;;;4.63;;
44750;SDS011;30477;48.224;11.470;2022-09-03T08:31:33;5.83;;;5.23;;
44750;SDS011;30477;48.224;11.470;2022-09-03T08:34:00;5.63;;;4.45;;
44750;SDS011;30477;48.224;11.470;2022-09-03T08:36:31;5.90;;;4.55;;
44750;SDS011;30477;48.224;11.470;2022-09-03T08:39:02;6.88;;;4.97;;
44750;SDS011;30477;48.224;11.470;2022-09-03T08:49:49;5.93;;;4.72;;
44750;SDS011;30477;48.224;11.470;2022-09-03T08:54:56;5.28;;;4.45;;
44750;SDS011;30477;48.224;11.470;2022-09-03T08:57:46;5.75;;;4.45;;
44750;SDS011;30477;48.224;11.470;2022-09-03T09:00:14;8.23;;;5.40;;
44750;SDS011;30477;48.224;11.470;2022-09-03T09:05:13;6.60;;;4.93;;
44750;SDS011;30477;48.224;11.470;2022-09-03T09:16:02;10.00;;;4.53;;
44750;SDS011;30477;48.224;11.470;2022-09-03T09:21:27;4.82;;;4.38;;
44750;SDS011;30477;48.224;11.470;2022-09-03T09:23:57;5.03;;;3.90;;
44750;SDS011;30477;48.224;11.470;2022-09-03T09:26:27;5.93;;;4.25;;
44750;SDS011;30477;48.224;11.470;2022-09-03T09:29:01;4.83;;;4.10;;
44750;SDS011;30477;48.224;11.470;2022-09-03T09:31:31;5.85;;;4.10;;
44750;SDS011;30477;48.224;11.470;2022-09-03T09:34:03;9.38;;;4.25;;
44750;SDS011;30477;48.224;11.470;2022-09-03T09:36:31;4.45;;;3.83;;
44750;SDS011;30477;48.224;11.470;2022-09-03T09:39:12;4.35;;;3.67;;
44750;SDS011;30477;48.224;11.470;2022-09-03T09:41:40;5.85;;;3.47;;
44750;SDS011;30477;48.224;11.470;2022-09-03T09:44:06;3.85;;;3.50;;
44750;SDS011;30477;48.224;11.470;2022-09-03T09:46:36;4.97;;;3.80;;
44750;SDS011;30477;48.224;11.470;2022-09-03T09:49:07;4.63;;;3.47;;
44750;SDS011;30477;48.224;11.470;2022-09-03T09:51:59;4.30;;;3.20;;
44750;SDS011;30477;48.224;11.470;2022-09-03T09:54:25;5.78;;;3.45;;
44750;SDS011;30477;48.224;11.470;2022-09-03T09:57:04;4.68;;;3.10;;
44750;SDS011;30477;48.224;11.470;2022-09-03T09:59:32;3.92;;;3.20;;
44750;SDS011;30477;48.224;11.470;2022-09-03T10:02:09;3.17;;;2.90;;
44750;SDS011;30477;48.224;11.470;2022-09-03T10:04:44;4.30;;;3.50;;
44750;SDS011;30477;48.224;11.470;2022-09-03T10:07:27;3.40;;;2.67;;
44750;SDS011;30477;48.224;11.470;2022-09-03T10:12:48;4.28;;;2.90;;
44750;SDS011;30477;48.224;11.470;2022-09-03T10:15:43;2.50;;;2.30;;
44750;SDS011;30477;48.224;11.470;2022-09-03T10:26:28;3.45;;;2.55;;
44750;SDS011;30477;48.224;11.470;2022-09-03T10:28:57;2.65;;;2.30;;
44750;SDS011;30477;48.224;11.470;2022-09-03T10:46:48;2.85;;;2.40;;
44750;SDS011;30477;48.224;11.470;2022-09-03T11:00:12;3.35;;;2.10;;
44750;SDS011;30477;48.224;11.470;2022-09-03T11:05:31;2.10;;;1.90;;
44750;SDS011;30477;48.224;11.470;2022-09-03T11:10:38;3.13;;;2.08;;
44750;SDS011;30477;48.224;11.470;2022-09-03T11:13:18;1.90;;;1.80;;
44750;SDS011;30477;48.224;11.470;2022-09-03T11:15:47;2.25;;;1.80;;
44750;SDS011;30477;48.224;11.470;2022-09-03T11:18:19;2.20;;;1.77;;
44750;SDS011;30477;48.224;11.470;2022-09-03T11:20:50;2.10;;;1.90;;
44750;SDS011;30477;48.224;11.470;2022-09-03T11:23:18;2.35;;;2.05;;
44750;SDS011;30477;48.224;11.470;2022-09-03T11:25:47;2.15;;;1.75;;
44750;SDS011;30477;48.224;11.470;2022-09-03T11:28:35;2.55;;;2.03;;
44750;SDS011;30477;48.224;11.470;2022-09-03T11:34:05;2.00;;;1.80;;
44750;SDS011;30477;48.224;11.470;2022-09-03T11:36:39;2.22;;;2.03;;
44750;SDS011;30477;48.224;11.470;2022-09-03T11:41:44;2.45;;;2.25;;
44750;SDS011;30477;48.224;11.470;2022-09-03T11:44:21;2.90;;;2.20;;
44750;SDS011;30477;48.224;11.470;2022-09-03T11:46:54;2.92;;;2.00;;
44750;SDS011;30477;48.224;11.470;2022-09-03T11:49:26;3.75;;;1.92;;
44750;SDS011;30477;48.224;11.470;2022-09-03T11:52:00;2.08;;;1.88;;
44750;SDS011;30477;48.224;11.470;2022-09-03T11:54:31;1.83;;;1.73;;
44750;SDS011;30477;48.224;11.470;2022-09-03T11:57:08;2.08;;;1.88;;
44750;SDS011;30477;48.224;11.470;2022-09-03T11:59:39;2.67;;;2.47;;
44750;SDS011;30477;48.224;11.470;2022-09-03T12:07:34;2.70;;;2.50;;
44750;SDS011;30477;48.224;11.470;2022-09-03T12:15:50;2.40;;;2.20;;
44750;SDS011;30477;48.224;11.470;2022-09-03T12:18:26;4.18;;;2.95;;
44750;SDS011;30477;48.224;11.470;2022-09-03T12:23:39;3.10;;;2.07;;
44750;SDS011;30477;48.224;11.470;2022-09-03T12:26:19;2.58;;;2.00;;
44750;SDS011;30477;48.224;11.470;2022-09-03T12:28:52;2.78;;;2.50;;
44750;SDS011;30477;48.224;11.470;2022-09-03T12:31:22;2.22;;;2.03;;
44750;SDS011;30477;48.224;11.470;2022-09-03T12:33:53;2.33;;;1.92;;
44750;SDS011;30477;48.224;11.470;2022-09-03T12:36:20;2.28;;;2.08;;
44750;SDS011;30477;48.224;11.470;2022-09-03T12:38:47;2.90;;;2.05;;
44750;SDS011;30477;48.224;11.470;2022-09-03T12:41:19;2.30;;;2.10;;
44750;SDS011;30477;48.224;11.470;2022-09-03T12:43:51;2.83;;;2.28;;
44750;SDS011;30477;48.224;11.470;2022-09-03T12:46:22;2.70;;;2.50;;
44750;SDS011;30477;48.224;11.470;2022-09-03T12:48:56;3.13;;;2.60;;
44750;SDS011;30477;48.224;11.470;2022-09-03T12:51:30;2.35;;;2.10;;
44750;SDS011;30477;48.224;11.470;2022-09-03T12:53:56;5.10;;;2.10;;
44750;SDS011;30477;48.224;11.470;2022-09-03T12:56:23;3.22;;;2.20;;
44750;SDS011;30477;48.224;11.470;2022-09-03T12:58:53;2.20;;;2.03;;
44750;SDS011;30477;48.224;11.470;2022-09-03T13:01:25;2.35;;;2.15;;
44750;SDS011;30477;48.224;11.470;2022-09-03T13:03:58;3.47;;;2.35;;
44750;SDS011;30477;48.224;11.470;2022-09-03T13:09:29;2.90;;;2.33;;
44750;SDS011;30477;48.224;11.470;2022-09-03T13:12:00;2.50;;;2.30;;
44750;SDS011;30477;48.224;11.470;2022-09-03T13:14:29;2.60;;;2.40;;
44750;SDS011;30477;48.224;11.470;2022-09-03T13:20:34;2.85;;;2.25;;
44750;SDS011;30477;48.224;11.470;2022-09-03T13:25:57;2.77;;;1.80;;
44750;SDS011;30477;48.224;11.470;2022-09-03T13:28:50;3.35;;;1.65;;
44750;SDS011;30477;48.224;11.470;2022-09-03T13:31:27;1.80;;;1.70;;
44750;SDS011;30477;48.224;11.470;2022-09-03T13:34:30;2.55;;;2.28;;
44750;SDS011;30477;48.224;11.470;2022-09-03T13:39:58;2.00;;;1.90;;
44750;SDS011;30477;48.224;11.470;2022-09-03T13:42:40;3.63;;;2.10;;
44750;SDS011;30477;48.224;11.470;2022-09-03T13:45:25;2.97;;;2.22;;
44750;SDS011;30477;48.224;11.470;2022-09-03T13:48:09;4.03;;;2.00;;
44750;SDS011;30477;48.224;11.470;2022-09-03T13:53:39;3.45;;;2.40;;
44750;SDS011;30477;48.224;11.470;2022-09-03T14:02:48;2.78;;;2.58;;
44750;SDS011;30477;48.224;11.470;2022-09-03T14:10:50;5.50;;;3.13;;
44750;SDS011;30477;48.224;11.470;2022-09-03T14:24:27;4.10;;;2.70;;
44750;SDS011;30477;48.224;11.470;2022-09-03T14:27:04;2.45;;;2.25;;
44750;SDS011;30477;48.224;11.470;2022-09-03T14:29:32;3.45;;;2.20;;
44750;SDS011;30477;48.224;11.470;2022-09-03T14:37:27;3.47;;;1.63;;
44750;SDS011;30477;48.224;11.470;2022-09-03T14:46:02;4.68;;;1.75;;
44750;SDS011;30477;48.224;11.470;2022-09-03T14:52:17;2.97;;;1.50;;
44750;SDS011;30477;48.224;11.470;2022-09-03T14:57:43;2.47;;;1.70;;
44750;SDS011;30477;48.224;11.470;2022-09-03T15:00:13;3.60;;;1.67;;
44750;SDS011;30477;48.224;11.470;2022-09-03T15:02:48;3.50;;;1.67;;
44750;SDS011;30477;48.224;11.470;2022-09-03T15:10:42;7.80;;;2.40;;
44750;SDS011;30477;48.224;11.470;2022-09-03T15:13:35;5.28;;;1.83;;
44750;SDS011;30477;48.224;11.470;2022-09-03T15:38:07;10.85;;;3.00;;
44750;SDS011;30477;48.224;11.470;2022-09-03T15:43:18;4.97;;;2.70;;
44750;SDS011;30477;48.224;11.470;2022-09-03T15:45:53;2.88;;;2.33;;
44750;SDS011;30477;48.224;11.470;2022-09-03T15:48:25;7.82;;;2.65;;
44750;SDS011;30477;48.224;11.470;2022-09-03T15:53:58;3.75;;;2.03;;
44750;SDS011;30477;48.224;11.470;2022-09-03T15:56:35;4.22;;;2.15;;
44750;SDS011;30477;48.224;11.470;2022-09-03T15:59:26;2.22;;;1.80;;
44750;SDS011;30477;48.224;11.470;2022-09-03T16:02:17;3.63;;;1.60;;
44750;SDS011;30477;48.224;11.470;2022-09-03T16:10:20;4.15;;;1.77;;
44750;SDS011;30477;48.224;11.470;2022-09-03T16:13:04;3.38;;;2.00;;
44750;SDS011;30477;48.224;11.470;2022-09-03T16:15:56;2.95;;;1.80;;
44750;SDS011;30477;48.224;11.470;2022-09-03T16:18:34;5.80;;;1.60;;
44750;SDS011;30477;48.224;11.470;2022-09-03T16:27:20;3.15;;;1.90;;
44750;SDS011;30477;48.224;11.470;2022-09-03T16:29:53;3.58;;;1.58;;
44750;SDS011;30477;48.224;11.470;2022-09-03T16:35:40;2.38;;;1.67;;
44750;SDS011;30477;48.224;11.470;2022-09-03T16:38:26;2.30;;;1.80;;
44750;SDS011;30477;48.224;11.470;2022-09-03T16:54:19;2.65;;;1.58;;
44750;SDS011;30477;48.224;11.470;2022-09-03T17:05:29;4.20;;;2.10;;
44750;SDS011;30477;48.224;11.470;2022-09-03T17:08:36;3.95;;;2.67;;
44750;SDS011;30477;48.224;11.470;2022-09-03T17:19:50;2.67;;;2.27;;
44750;SDS011;30477;48.224;11.470;2022-09-03T17:22:47;3.70;;;2.13;;
44750;SDS011;30477;48.224;11.470;2022-09-03T17:31:09;3.50;;;1.90;;
44750;SDS011;30477;48.224;11.470;2022-09-03T17:36:28;3.72;;;1.90;;
44750;SDS011;30477;48.224;11.470;2022-09-03T17:39:02;4.47;;;2.03;;
44750;SDS011;30477;48.224;11.470;2022-09-03T17:49:26;3.85;;;2.10;;
44750;SDS011;30477;48.224;11.470;2022-09-03T17:52:04;3.13;;;2.05;;
44750;SDS011;30477;48.224;11.470;2022-09-03T17:54:43;2.28;;;1.83;;
44750;SDS011;30477;48.224;11.470;2022-09-03T17:57:23;2.45;;;2.05;;
44750;SDS011;30477;48.224;11.470;2022-09-03T17:59:56;2.75;;;1.90;;
44750;SDS011;30477;48.224;11.470;2022-09-03T18:02:30;2.92;;;1.95;;
44750;SDS011;30477;48.224;11.470;2022-09-03T18:04:59;2.60;;;2.00;;
44750;SDS011;30477;48.224;11.470;2022-09-03T18:07:40;2.38;;;2.00;;
44750;SDS011;30477;48.224;11.470;2022-09-03T18:10:23;2.20;;;2.00;;
44750;SDS011;30477;48.224;11.470;2022-09-03T18:16:05;3.47;;;2.08;;
44750;SDS011;30477;48.224;11.470;2022-09-03T18:18:36;2.30;;;1.98;;
44750;SDS011;30477;48.224;11.470;2022-09-03T18:21:09;4.45;;;2.60;;
44750;SDS011;30477;48.224;11.470;2022-09-03T18:27:06;4.30;;;2.20;;
44750;SDS011;30477;48.224;11.470;2022-09-03T18:29:57;2.58;;;1.95;;
44750;SDS011;30477;48.224;11.470;2022-09-03T18:32:42;4.57;;;2.08;;
44750;SDS011;30477;48.224;11.470;2022-09-03T18:35:28;2.72;;;1.90;;
44750;SDS011;30477;48.224;11.470;2022-09-03T18:38:13;3.33;;;2.10;;
44750;SDS011;30477;48.224;11.470;2022-09-03T18:50:03;3.50;;;2.00;;
44750;SDS011;30477;48.224;11.470;2022-09-03T19:02:09;3.03;;;1.90;;
44750;SDS011;30477;48.224;11.470;2022-09-03T19:05:10;2.53;;;1.95;;
44750;SDS011;30477;48.224;11.470;2022-09-03T19:15:13;2.80;;;2.00;;
44750;SDS011;30477;48.224;11.470;2022-09-03T19:18:21;2.53;;;1.80;;
44750;SDS011;30477;48.224;11.470;2022-09-03T19:24:19;3.13;;;2.10;;
44750;SDS011;30477;48.224;11.470;2022-09-03T19:36:10;2.20;;;2.00;;
44750;SDS011;30477;48.224;11.470;2022-09-03T19:48:42;3.30;;;2.13;;
44750;SDS011;30477;48.224;11.470;2022-09-03T19:51:40;2.65;;;1.95;;
44750;SDS011;30477;48.224;11.470;2022-09-03T19:54:33;2.13;;;1.92;;
44750;SDS011;30477;48.224;11.470;2022-09-03T19:57:19;3.42;;;2.00;;
44750;SDS011;30477;48.224;11.470;2022-09-03T20:00:05;5.22;;;2.00;;
44750;SDS011;30477;48.224;11.470;2022-09-03T20:02:49;2.45;;;2.20;;
44750;SDS011;30477;48.224;11.470;2022-09-03T20:05:33;2.90;;;2.25;;
44750;SDS011;30477;48.224;11.470;2022-09-03T20:08:19;3.42;;;2.08;;
44750;SDS011;30477;48.224;11.470;2022-09-03T20:11:06;2.60;;;2.33;;
44750;SDS011;30477;48.224;11.470;2022-09-03T20:13:38;3.63;;;2.20;;
44750;SDS011;30477;48.224;11.470;2022-09-03T20:16:30;3.05;;;2.33;;
44750;SDS011;30477;48.224;11.470;2022-09-03T20:27:40;2.55;;;2.30;;
44750;SDS011;30477;48.224;11.470;2022-09-03T20:30:45;3.03;;;2.40;;
44750;SDS011;30477;48.224;11.470;2022-09-03T20:49:30;3.53;;;2.03;;
44750;SDS011;30477;48.224;11.470;2022-09-03T20:52:13;2.50;;;2.30;;
44750;SDS011;30477;48.224;11.470;2022-09-03T21:02:58;2.83;;;2.30;;
44750;SDS011;30477;48.224;11.470;2022-09-03T21:09:28;2.67;;;2.10;;
44750;SDS011;30477;48.224;11.470;2022-09-03T21:14:57;3.20;;;2.22;;
44750;SDS011;30477;48.224;11.470;2022-09-03T21:24:00;2.92;;;2.28;;
44750;SDS011;30477;48.224;11.470;2022-09-03T21:26:39;3.25;;;2.40;;
44750;SDS011;30477;48.224;11.470;2022-09-03T21:29:25;2.40;;;2.20;;
44750;SDS011;30477;48.224;11.470;2022-09-03T21:37:18;5.05;;;2.40;;
44750;SDS011;30477;48.224;11.470;2022-09-03T21:39:50;7.63;;;3.20;;
44750;SDS011;30477;48.224;11.470;2022-09-03T21:47:37;4.28;;;2.70;;
44750;SDS011;30477;48.224;11.470;2022-09-03T21:54:58;3.63;;;2.78;;
44750;SDS011;30477;48.224;11.470;2022-09-03T21:57:42;3.77;;;3.00;;
44750;SDS011;30477;48.224;11.470;2022-09-03T22:00:28;3.38;;;3.03;;
44750;SDS011;30477;48.224;11.470;2022-09-03T22:02:56;5.10;;;3.00;;
44750;SDS011;30477;48.224;11.470;2022-09-03T22:05:23;2.72;;;2.50;;
44750;SDS011;30477;48.224;11.470;2022-09-03T22:10:31;3.35;;;2.80;;
44750;SDS011;30477;48.224;11.470;2022-09-03T22:16:11;3.03;;;2.60;;
44750;SDS011;30477;48.224;11.470;2022-09-03T22:18:49;3.30;;;2.83;;
44750;SDS011;30477;48.224;11.470;2022-09-03T22:31:48;2.95;;;2.30;;
44750;SDS011;30477;48.224;11.470;2022-09-03T22:37:01;3.85;;;2.50;;